COYOTE (LAKE MENDOCINO) (COY)

Elevation: 720' · RUSSIAN R basin · Operator: US Army Corps of Engineers

Provisional data, subject to change.
Query executed Monday at 6:25:03   clock

Select a sensor type for a plot of data.
Note: Reservoir Flows are daily averages.

Earlier

Date RES ELE    STORAGE    RES CHG    TOC STO    ABV TOC    OUTFLOW    INFLOW    PPT INC    TEMP MN    TEMP MX    EVP PAN   
 FEET   AF   AF   AF   AF   CFS   CFS   INCHES   DEG F   DEG F   INCHES  
06/07/2015 730.30 56758 -126 86370 -29612 89 39 0.02 -26 38 0.28
06/08/2015 730.23 56649 -109 86370 -29721 93 55 0.02 16 41 0.34
06/09/2015 730.15 56523 -126 86370 -29847 98 49 0.00 16 35 0.30
06/10/2015 730.09 56429 -94 86370 -29941 99 65 0.00 18 32 0.29
06/11/2015 730.02 56320 -109 86370 -30050 101 61 0.00 14 36 0.32
06/12/2015 729.94 56195 -125 86370 -30175 109 63 0.01 15 42 0.35
06/13/2015 729.83 56023 -172 86370 -30347 133 63 0.00 15 39 0.35
06/14/2015 729.70 55820 -203 86370 -30550 146 59 0.00 12 34 0.32
06/15/2015 729.57 55618 -202 86370 -30752 146 52 0.00 -61 29 0.16
06/16/2015 729.41 55369 -249 86370 -31001 148 37 0.00 3 34 0.30
06/17/2015 729.28 55167 -202 86370 -31203 142 55 0.00 6 37 0.32
06/18/2015 729.18 55011 -156 86370 -31359 125 60 0.00 -0 31 0.30
06/19/2015 729.05 54810 -201 86370 -31560 122 36 0.00 9 33 0.31
06/20/2015 728.97 54686 -124 86370 -31684 111 63 0.00 11 37 0.32
06/21/2015 728.87 54531 -155 86370 -31839 104 40 0.00 11 30 0.29
06/22/2015 728.80 54422 -109 86370 -31948 102 62 0.00 9 33 0.31
06/23/2015 728.72 54299 -123 86370 -32071 100 52 0.00 12 31 0.31
06/24/2015 728.64 54175 -124 86370 -32195 103 56 0.00 13 35 0.32
06/25/2015 728.58 54082 -93 86370 -32288 101 70 0.00 15 40 0.34
06/26/2015 728.49 53943 -139 86370 -32427 111 57 0.00 17 41 0.35
06/27/2015 728.39 53789 -154 86370 -32581 113 49 0.00 -4 33 0.29
06/28/2015 728.29 53635 -154 86370 -32735 116 54 0.00 17 34 0.34
06/29/2015 728.19 53481 -154 86370 -32889 116 53 0.00 12 36 0.32
06/30/2015 728.08 53312 -169 86370 -33058 116 48 0.00 14 42 0.35
07/01/2015 727.98 53158 -154 86370 -33212 116 56 0.00 17 41 0.36
07/02/2015 727.85 52958 -200 86370 -33412 116 31 0.00 19 40 0.33
07/03/2015 727.76 52820 -138 86370 -33550 116 60 0.00 19 36 0.27
07/04/2015 727.65 52652 -168 86370 -33718 116 48 0.00 18 39 0.34
07/05/2015 727.54 52483 -169 86370 -33887 116 40 0.00 -71 34 0.20
07/06/2015 -- -- -- -- -- -- -- -- -- -- --

Later | Latest

Warning! This data is preliminary and subject to revision.

Show COY Map | Plot COY Data | 1 Month COY Data | Real-Time COY Data | COY Info